Impacts TAF Board
For situational awareness. Not to be used for flight planning purposes.
IDs:

KLVS - Las Vegas Muni, NM, US

Issued at 1738 UTC 02 Aug 2021
Updated at 2037 UTC 02 Aug 2021
Potential Impact None Slight Moderate High
Time1953Z 02/21Z 02/22Z 02/23Z 03/00Z 03/01Z 03/02Z 03/03Z 03/04Z 03/05Z 03/06Z 03/07Z 03/08Z 03/09Z>>
Type OBS PRVL PRVL
  [TEMP]  
PRVL
  [TEMP]  
PRVL
  [TEMP]  
PRVL
  [TEMP]  
PRVL PRVL PRVL PRVL PRVL PRVL PRVL PRVL
VIS 9 >6 >6
  [5]  
>6
  [5]  
>6
  [5]  
>6
  [5]  
>6 >6 >6 >6 >6 >6 >6 >6
CIG -- -- --
  [60]  
--
  [60]  
--
  [60]  
--
  [60]  
80 80 80 80 -- -- -- --
Cover FEW SCT SCT
  [BKN]  
SCT
  [BKN]  
SCT
  [BKN]  
SCT
  [BKN]  
BKN BKN BKN BKN SCT SCT SCT SCT
FltCat VFR VFR VFR
  [MVFR]  
VFR
  [MVFR]  
VFR
  [MVFR]  
VFR
  [MVFR]  
VFR VFR VFR VFR VFR VFR VFR VFR
WX -- VCTS VCTS
  [TSRA]  
VCTS
  [TSRA]  
VCTS
  [TSRA]  
VCTS
  [TSRA]  
-- -- -- -- -- -- -- --
WDir 160 200 200
[VRB]
200
[VRB]
200
[VRB]
200
[VRB]
150 150 150 150 VRB VRB VRB VRB
WSpd 10 10 10
  [15]  
10
  [15]  
10
  [15]  
10
  [15]  
5 5 5 5 5 5 5 5
WGst 15 -- --
  [25]  
--
  [25]  
--
  [25]  
--
  [25]  
-- -- -- -- -- -- -- --
Raw TAF
KLVS 021738Z 0218/0318 17006KT P6SM SCT080 BKN100
  FM022100 20010KT P6SM VCTS SCT070CB SCT100
  TEMPO 0222/0302 VRB15G25KT 5SM TSRA BKN060CB
  FM030200 15005KT P6SM BKN080
  FM030600 VRB05KT P6SM SCT100


Raw METAR
KLVS 021953Z AUTO 16010G15KT 9SM FEW060 22/13 A3042 RMK AO2 SLP201 T02170128
KLVS 021853Z AUTO VRB05KT 10SM CLR 20/11 A3044 RMK AO2 SLP210 T02000111
KLVS 021753Z AUTO 18004KT 9SM FEW036 19/10 A3046 RMK AO2 RAB28E37 SLP222 P0000 60000 T01890100 10189 20133 58006

METAR Board
Radar Display
Forecast Discussion
For situational awareness. Not to be used for flight planning purposes.